createdAt,value
2023-01-08T00:02:11.592Z,22.35
2023-01-08T00:04:58.165Z,24.45
2023-01-08T00:07:44.417Z,23.88
2023-01-08T00:10:30.695Z,24.30
2023-01-08T00:13:17.012Z,24.90
2023-01-08T00:16:04.303Z,19.65
2023-01-08T00:18:50.558Z,20.45
2023-01-08T00:21:36.943Z,21.48
2023-01-08T00:24:23.054Z,28.60
2023-01-08T00:27:09.800Z,24.17
2023-01-08T00:29:56.383Z,24.38
2023-01-08T00:32:42.797Z,24.35
2023-01-08T00:35:29.234Z,20.67
2023-01-08T00:38:15.606Z,23.08
2023-01-08T00:41:02.057Z,24.92
2023-01-08T00:43:48.272Z,22.85
2023-01-08T00:46:34.444Z,21.85
2023-01-08T00:49:20.630Z,25.08
2023-01-08T00:52:07.824Z,25.23
2023-01-08T00:54:54.081Z,21.02
2023-01-08T00:57:40.263Z,32.50
2023-01-08T01:00:26.832Z,24.42
2023-01-08T01:03:13.231Z,22.48
2023-01-08T01:06:03.721Z,23.63
2023-01-08T01:08:50.405Z,25.83
2023-01-08T01:11:36.834Z,21.02
2023-01-08T01:14:23.329Z,26.02
2023-01-08T01:17:09.391Z,27.33
2023-01-08T01:19:55.414Z,27.95
2023-01-08T01:22:42.219Z,24.13
2023-01-08T01:25:28.328Z,21.58
2023-01-08T01:28:14.639Z,24.30
2023-01-08T01:31:07.065Z,23.67
2023-01-08T01:33:53.677Z,16.95
2023-01-08T01:36:39.905Z,20.50
2023-01-08T01:39:26.408Z,28.10
2023-01-08T01:42:36.628Z,25.05
2023-01-08T01:45:23.878Z,21.30
2023-01-08T01:48:15.391Z,25.77
2023-01-08T01:51:02.149Z,21.30
2023-01-08T01:53:49.449Z,24.13
2023-01-08T01:56:35.763Z,24.35
2023-01-08T01:59:21.833Z,24.40
2023-01-08T02:02:08.795Z,24.08
2023-01-08T02:04:55.045Z,26.30
2023-01-08T02:07:44.339Z,27.90
2023-01-08T02:10:37.977Z,25.17
2023-01-08T02:13:27.475Z,20.52
2023-01-08T02:16:19.852Z,25.00
2023-01-08T02:19:25.007Z,24.65
2023-01-08T02:22:43.868Z,25.65
2023-01-08T02:25:30.424Z,23.52
2023-01-08T02:28:17.268Z,28.90
2023-01-08T02:31:03.881Z,31.38
2023-01-08T02:33:50.090Z,23.77
2023-01-08T02:36:36.176Z,24.40
2023-01-08T02:39:31.587Z,27.63
2023-01-08T02:42:24.942Z,24.75
2023-01-08T02:45:29.842Z,24.08
2023-01-08T02:48:35.125Z,24.42
2023-01-08T02:51:36.197Z,24.50
2023-01-08T02:54:27.977Z,24.38
2023-01-08T02:57:16.004Z,24.50
2023-01-08T03:00:02.154Z,24.58
2023-01-08T03:02:51.389Z,24.70
2023-01-08T03:05:39.097Z,26.20
2023-01-08T03:08:26.109Z,23.98
2023-01-08T03:11:13.636Z,26.38
2023-01-08T03:14:05.943Z,29.27
2023-01-08T03:17:12.346Z,24.75
2023-01-08T03:20:03.987Z,24.88
2023-01-08T03:22:58.138Z,23.17
2023-01-08T03:25:47.065Z,26.67
2023-01-08T03:28:39.910Z,23.15
2023-01-08T03:31:29.288Z,22.50
2023-01-08T03:34:16.275Z,25.15
2023-01-08T03:37:03.636Z,23.90
2023-01-08T03:40:06.333Z,25.85
2023-01-08T03:42:52.902Z,26.98
2023-01-08T03:45:40.061Z,24.90
2023-01-08T03:48:26.878Z,25.33
2023-01-08T03:51:13.386Z,27.35
2023-01-08T03:54:00.440Z,26.05
2023-01-08T03:56:46.928Z,26.70
2023-01-08T03:59:33.125Z,26.30
2023-01-08T04:02:19.911Z,26.38
2023-01-08T04:05:06.601Z,28.02
2023-01-08T04:07:55.879Z,29.30
2023-01-08T04:10:42.535Z,27.92
2023-01-08T04:13:28.764Z,27.15
2023-01-08T04:16:15.138Z,24.60
2023-01-08T04:19:01.547Z,26.90
2023-01-08T04:21:47.852Z,23.83
2023-01-08T04:24:34.185Z,25.25
2023-01-08T04:27:20.553Z,23.02
2023-01-08T04:30:07.205Z,27.08
2023-01-08T04:32:53.265Z,24.88
2023-01-08T04:35:39.323Z,23.15
2023-01-08T04:38:25.555Z,27.80
2023-01-08T04:41:11.870Z,25.77
2023-01-08T04:43:59.425Z,26.73
2023-01-08T04:46:45.620Z,25.00
2023-01-08T04:49:31.884Z,23.92
2023-01-08T04:52:18.061Z,27.38
2023-01-08T04:55:04.788Z,27.63
2023-01-08T04:57:51.443Z,26.38
2023-01-08T05:00:39.480Z,26.30
2023-01-08T05:03:27.133Z,25.88
2023-01-08T05:06:13.807Z,27.75
2023-01-08T05:09:00.051Z,25.80
2023-01-08T05:11:46.553Z,22.95
2023-01-08T05:14:32.784Z,26.80
2023-01-08T05:17:18.891Z,27.73
2023-01-08T05:20:05.255Z,27.10
2023-01-08T05:22:51.677Z,31.40
2023-01-08T05:25:37.938Z,28.55
2023-01-08T05:28:24.197Z,24.95
2023-01-08T05:31:11.991Z,26.98
2023-01-08T05:33:59.646Z,28.48
2023-01-08T05:36:46.102Z,26.20
2023-01-08T05:39:32.601Z,25.98
2023-01-08T05:42:18.816Z,24.92
2023-01-08T05:45:05.839Z,26.77
2023-01-08T05:47:52.329Z,25.27
2023-01-08T05:50:38.624Z,28.30
2023-01-08T05:53:25.227Z,26.02
2023-01-08T05:56:12.448Z,24.83
2023-01-08T05:58:58.804Z,28.35
2023-01-08T06:01:45.500Z,24.95
2023-01-08T06:04:32.186Z,27.20
2023-01-08T06:07:18.336Z,25.08
2023-01-08T06:10:05.054Z,26.58
2023-01-08T06:12:51.242Z,28.40
2023-01-08T06:15:40.323Z,28.52
2023-01-08T06:18:27.300Z,25.77
2023-01-08T06:21:14.108Z,27.05
2023-01-08T06:24:00.709Z,27.90
2023-01-08T06:26:46.807Z,30.40
2023-01-08T06:29:33.188Z,28.00
2023-01-08T06:32:19.377Z,31.48
2023-01-08T06:35:05.716Z,27.27
2023-01-08T06:37:52.200Z,29.65
2023-01-08T06:40:38.252Z,30.55
2023-01-08T06:43:24.760Z,28.17
2023-01-08T06:46:11.640Z,33.28
2023-01-08T06:48:57.993Z,31.63
2023-01-08T06:51:44.253Z,32.95
2023-01-08T06:54:30.611Z,27.67
2023-01-08T06:57:17.081Z,27.85
2023-01-08T07:00:03.412Z,31.52
2023-01-08T07:02:49.808Z,30.25
2023-01-08T07:05:36.604Z,33.45
2023-01-08T07:08:23.308Z,34.80
2023-01-08T07:11:10.040Z,28.02
2023-01-08T07:13:56.982Z,31.00
2023-01-08T07:16:43.379Z,40.63
2023-01-08T07:19:29.600Z,32.25
2023-01-08T07:22:15.987Z,32.15
2023-01-08T07:25:02.555Z,37.25
2023-01-08T07:27:50.424Z,30.33
2023-01-08T07:30:36.816Z,33.97
2023-01-08T07:33:23.275Z,30.05
2023-01-08T07:36:09.979Z,33.58
2023-01-08T07:38:56.368Z,37.50
2023-01-08T07:41:44.469Z,32.85
2023-01-08T07:44:31.254Z,39.55
2023-01-08T07:47:17.440Z,37.13
2023-01-08T07:50:04.317Z,37.80
2023-01-08T07:52:52.799Z,40.10
2023-01-08T07:55:38.842Z,37.40
2023-01-08T07:58:24.871Z,39.70
2023-01-08T08:01:11.671Z,41.47
2023-01-08T08:03:58.346Z,39.95
2023-01-08T08:06:44.840Z,43.35
2023-01-08T08:09:31.423Z,39.42
2023-01-08T08:12:17.599Z,41.85
2023-01-08T08:15:04.302Z,39.20
2023-01-08T08:17:50.921Z,40.53
2023-01-08T08:20:37.512Z,38.80
2023-01-08T08:23:24.018Z,44.03
2023-01-08T08:26:10.320Z,36.30
2023-01-08T08:28:56.710Z,52.65
2023-01-08T08:31:43.324Z,46.10
2023-01-08T08:34:29.496Z,40.92
2023-01-08T08:37:15.825Z,47.95
2023-01-08T08:40:01.933Z,47.75
2023-01-08T08:42:47.991Z,41.15
2023-01-08T08:45:34.142Z,42.92
2023-01-08T08:48:20.659Z,51.33
2023-01-08T08:51:07.551Z,47.17
2023-01-08T08:53:53.849Z,43.67
2023-01-08T08:56:40.114Z,42.13
2023-01-08T08:59:26.402Z,43.35
2023-01-08T09:02:13.316Z,39.50
2023-01-08T09:04:59.658Z,44.10
2023-01-08T09:07:45.743Z,41.75
2023-01-08T09:10:32.033Z,44.65
2023-01-08T09:13:18.415Z,46.30
2023-01-08T09:16:04.585Z,42.13
2023-01-08T09:18:50.804Z,47.28
2023-01-08T09:21:37.376Z,45.63
2023-01-08T09:24:24.439Z,47.80
2023-01-08T09:27:11.239Z,45.95
2023-01-08T09:29:57.702Z,46.60
2023-01-08T09:32:43.992Z,40.60
2023-01-08T09:35:30.571Z,45.08
2023-01-08T09:38:17.091Z,45.85
2023-01-08T09:41:05.372Z,45.65
2023-01-08T09:43:53.668Z,45.83
2023-01-08T09:46:40.705Z,46.00
2023-01-08T09:49:32.781Z,44.22
2023-01-08T09:52:19.469Z,51.20
2023-01-08T09:55:24.704Z,48.03
2023-01-08T09:58:25.234Z,42.30
2023-01-08T10:01:15.919Z,47.85
2023-01-08T10:04:14.378Z,45.58
2023-01-08T10:07:12.430Z,48.05
2023-01-08T10:09:58.966Z,50.03
2023-01-08T10:12:45.599Z,47.00
2023-01-08T10:15:31.943Z,46.20
2023-01-08T10:18:20.311Z,46.53
2023-01-08T10:21:07.403Z,44.50
2023-01-08T10:23:55.035Z,47.85
2023-01-08T10:26:41.957Z,48.75
2023-01-08T10:29:30.509Z,45.70
2023-01-08T10:32:19.068Z,42.40
2023-01-08T10:35:07.762Z,48.03
2023-01-08T10:37:54.595Z,44.80
2023-01-08T10:40:45.605Z,48.72
2023-01-08T10:43:36.814Z,44.60
2023-01-08T10:46:25.245Z,46.80
2023-01-08T10:49:21.886Z,47.38
2023-01-08T10:52:25.139Z,50.25
2023-01-08T10:55:23.284Z,46.30
2023-01-08T10:58:09.348Z,38.10
2023-01-08T11:00:57.723Z,45.30
2023-01-08T11:04:16.721Z,43.17
2023-01-08T11:07:08.369Z,46.17
2023-01-08T11:09:54.915Z,42.95
2023-01-08T11:12:43.215Z,43.55
2023-01-08T11:15:31.095Z,48.30
2023-01-08T11:18:20.649Z,46.42
2023-01-08T11:21:11.631Z,43.47
2023-01-08T11:24:13.244Z,39.97
2023-01-08T11:27:10.789Z,37.33
2023-01-08T11:30:00.429Z,42.53
2023-01-08T11:32:47.100Z,46.03
2023-01-08T11:35:41.400Z,44.03
2023-01-08T11:38:28.583Z,45.70
2023-01-08T11:41:38.238Z,40.97
2023-01-08T11:44:30.608Z,40.63
2023-01-08T11:47:35.547Z,42.33
2023-01-08T11:50:22.146Z,40.85
2023-01-08T11:53:21.005Z,43.17
2023-01-08T11:56:13.674Z,42.53
2023-01-08T11:59:00.125Z,34.13
2023-01-08T12:02:02.861Z,39.15
2023-01-08T12:04:58.991Z,31.23
2023-01-08T12:07:57.755Z,42.50
2023-01-08T12:10:57.242Z,45.65
2023-01-08T12:14:02.483Z,38.22
2023-01-08T12:16:48.883Z,36.47
2023-01-08T12:19:54.130Z,40.33
2023-01-08T12:22:47.911Z,41.67
2023-01-08T12:25:34.241Z,40.75
2023-01-08T12:28:30.951Z,38.75
2023-01-08T12:31:36.295Z,41.75
2023-01-08T12:34:25.706Z,39.70
2023-01-08T12:37:16.811Z,45.05
2023-01-08T12:40:24.294Z,42.20
2023-01-08T12:43:26.970Z,44.13
2023-01-08T12:46:17.139Z,42.22
2023-01-08T12:49:05.424Z,42.22
2023-01-08T12:52:08.839Z,46.65
2023-01-08T12:58:11.921Z,40.30
2023-01-08T13:01:24.293Z,43.85
2023-01-08T13:04:11.314Z,44.78
2023-01-08T13:07:18.585Z,41.70
2023-01-08T13:10:08.332Z,38.10
2023-01-08T13:12:55.561Z,46.70
2023-01-08T13:15:41.663Z,46.88
2023-01-08T13:18:28.184Z,39.60
2023-01-08T13:21:15.185Z,42.40
2023-01-08T13:24:02.523Z,42.75
2023-01-08T13:26:49.020Z,42.28
2023-01-08T13:29:35.127Z,47.50
2023-01-08T13:32:41.868Z,35.88
2023-01-08T13:35:32.061Z,45.53
2023-01-08T13:38:19.614Z,42.65
2023-01-08T13:41:06.753Z,41.58
2023-01-08T13:43:58.967Z,42.33
2023-01-08T13:46:54.051Z,43.70
2023-01-08T13:49:45.058Z,42.47
2023-01-08T13:52:40.983Z,41.22
2023-01-08T13:55:32.180Z,41.00
2023-01-08T13:58:21.037Z,43.50
2023-01-08T14:01:08.104Z,40.35
2023-01-08T14:03:54.458Z,38.30
2023-01-08T14:06:40.817Z,42.55
2023-01-08T14:09:27.482Z,42.05
2023-01-08T14:12:15.962Z,44.63
2023-01-08T14:15:04.478Z,39.85
2023-01-08T14:17:51.470Z,41.80
2023-01-08T14:20:40.321Z,42.17
2023-01-08T14:23:31.935Z,38.70
2023-01-08T14:26:31.883Z,37.70
2023-01-08T14:29:21.228Z,37.67
2023-01-08T14:32:17.166Z,42.90
2023-01-08T14:35:04.925Z,37.13
2023-01-08T14:37:51.353Z,37.78
2023-01-08T14:40:39.530Z,37.78
2023-01-08T14:43:25.796Z,43.85
2023-01-08T14:46:16.641Z,42.83
2023-01-08T14:49:03.324Z,40.90
2023-01-08T14:51:51.790Z,38.85
2023-01-08T14:54:39.499Z,40.70
2023-01-08T14:57:26.579Z,37.03
2023-01-08T15:00:22.018Z,39.90
2023-01-08T15:03:08.341Z,35.58
2023-01-08T15:05:56.109Z,38.05
2023-01-08T15:08:43.126Z,39.88
2023-01-08T15:11:31.372Z,37.03
2023-01-08T15:14:23.253Z,38.30
2023-01-08T15:17:13.968Z,42.65
2023-01-08T15:20:01.795Z,38.70
2023-01-08T15:22:58.933Z,40.58
2023-01-08T15:26:01.317Z,41.90
2023-01-08T15:28:51.506Z,43.80
2023-01-08T15:31:48.063Z,38.88
2023-01-08T15:34:36.937Z,40.78
2023-01-08T15:37:23.813Z,40.22
2023-01-08T15:40:14.108Z,40.15
2023-01-08T15:43:13.180Z,38.58
2023-01-08T15:46:00.183Z,42.15
2023-01-08T15:48:47.022Z,41.08
2023-01-08T15:51:35.205Z,40.47
2023-01-08T15:54:24.695Z,36.53
2023-01-08T15:57:12.767Z,38.20
2023-01-08T15:59:59.288Z,35.80
2023-01-08T16:02:49.580Z,37.47
2023-01-08T16:05:36.549Z,38.63
2023-01-08T16:08:23.263Z,40.92
2023-01-08T16:11:15.411Z,37.50
2023-01-08T16:14:01.588Z,38.38
2023-01-08T16:16:50.636Z,41.38
2023-01-08T16:19:36.871Z,39.17
2023-01-08T16:22:25.613Z,37.65
2023-01-08T16:25:12.671Z,36.33
2023-01-08T16:27:59.004Z,37.15
2023-01-08T16:30:45.109Z,43.20
2023-01-08T16:33:31.828Z,41.13
2023-01-08T16:36:18.361Z,35.95
2023-01-08T16:39:04.948Z,40.20
2023-01-08T16:41:51.361Z,37.38
2023-01-08T16:44:37.911Z,39.00
2023-01-08T16:47:24.103Z,38.22
2023-01-08T16:50:12.271Z,41.45
2023-01-08T16:52:58.539Z,39.38
2023-01-08T16:55:45.357Z,38.38
2023-01-08T16:58:32.162Z,42.63
2023-01-08T17:01:18.994Z,42.45
2023-01-08T17:04:05.672Z,43.88
2023-01-08T17:06:51.763Z,42.45
2023-01-08T17:09:37.997Z,43.00
2023-01-08T17:12:24.007Z,41.47
2023-01-08T17:15:10.577Z,38.13
2023-01-08T17:17:58.795Z,41.10
2023-01-08T17:20:45.185Z,40.85
2023-01-08T17:23:31.765Z,37.58
2023-01-08T17:26:18.376Z,39.20
2023-01-08T17:29:04.908Z,39.15
2023-01-08T17:31:51.515Z,36.53
2023-01-08T17:34:38.193Z,36.40
2023-01-08T17:37:24.370Z,41.80
2023-01-08T17:40:10.861Z,36.55
2023-01-08T17:42:57.428Z,36.80
2023-01-08T17:45:43.712Z,33.50
2023-01-08T17:48:29.928Z,38.58
2023-01-08T17:51:16.316Z,34.08
2023-01-08T17:54:02.677Z,37.50
2023-01-08T17:56:49.132Z,35.53
2023-01-08T17:59:35.751Z,35.88
2023-01-08T18:02:22.208Z,34.83
2023-01-08T18:05:09.330Z,35.95
2023-01-08T18:07:56.091Z,31.55
2023-01-08T18:10:42.351Z,35.13
2023-01-08T18:13:28.696Z,34.10
2023-01-08T18:16:15.279Z,35.15
2023-01-08T18:19:01.535Z,33.90
2023-01-08T18:21:48.516Z,33.63
2023-01-08T18:24:35.278Z,35.03
2023-01-08T18:27:21.696Z,36.05
2023-01-08T18:30:08.508Z,34.78
2023-01-08T18:32:54.516Z,33.88
2023-01-08T18:35:40.868Z,32.25
2023-01-08T18:38:27.298Z,34.13
2023-01-08T18:41:34.564Z,35.80
2023-01-08T18:44:20.638Z,31.92
2023-01-08T18:47:06.922Z,38.30
2023-01-08T18:49:54.971Z,33.28
2023-01-08T18:52:42.169Z,32.28
2023-01-08T18:55:28.456Z,32.10
2023-01-08T18:58:15.110Z,34.42
2023-01-08T19:01:05.347Z,36.13
2023-01-08T19:03:51.644Z,32.95
2023-01-08T19:06:38.587Z,31.38
2023-01-08T19:09:25.053Z,29.67
2023-01-08T19:12:11.365Z,31.48
2023-01-08T19:15:00.657Z,32.50
2023-01-08T19:17:47.106Z,34.58
2023-01-08T19:20:33.540Z,38.10
2023-01-08T19:23:19.787Z,33.10
2023-01-08T19:26:09.570Z,36.97
2023-01-08T19:28:55.788Z,37.83
2023-01-08T19:31:42.106Z,37.40
2023-01-08T19:34:28.809Z,37.40
2023-01-08T19:37:15.233Z,36.35
2023-01-08T19:40:05.430Z,33.40
2023-01-08T19:43:10.372Z,39.33
2023-01-08T19:45:56.845Z,38.58
2023-01-08T19:48:44.314Z,41.35
2023-01-08T19:51:32.114Z,38.33
2023-01-08T19:54:20.302Z,39.97
2023-01-08T19:57:06.606Z,39.35
2023-01-08T19:59:52.976Z,44.40
2023-01-08T20:02:39.161Z,38.25
2023-01-08T20:05:25.759Z,37.55
2023-01-08T20:08:12.291Z,38.47
2023-01-08T20:10:58.459Z,38.75
2023-01-08T20:13:45.054Z,38.08
2023-01-08T20:16:31.463Z,40.55
2023-01-08T20:19:18.271Z,37.85
2023-01-08T20:22:04.647Z,37.15
2023-01-08T20:24:53.012Z,39.35
2023-01-08T20:27:40.170Z,37.35
2023-01-08T20:30:27.345Z,43.05
2023-01-08T20:33:15.480Z,41.97
2023-01-08T20:36:08.336Z,39.00
2023-01-08T20:38:56.188Z,39.17
2023-01-08T20:41:49.833Z,37.92
2023-01-08T20:44:47.570Z,40.33
2023-01-08T20:47:35.968Z,40.33
2023-01-08T20:50:22.969Z,39.17
2023-01-08T20:53:09.225Z,41.60
2023-01-08T20:55:56.093Z,38.20
2023-01-08T20:58:43.733Z,43.45
2023-01-08T21:01:34.065Z,41.15
2023-01-08T21:04:20.597Z,41.53
2023-01-08T21:07:07.175Z,40.90
2023-01-08T21:09:53.706Z,40.40
2023-01-08T21:12:40.238Z,38.85
2023-01-08T21:15:26.908Z,39.55
2023-01-08T21:18:14.217Z,36.90
2023-01-08T21:21:01.717Z,42.22
2023-01-08T21:23:48.839Z,38.00
2023-01-08T21:26:35.907Z,34.13
2023-01-08T21:29:23.678Z,37.55
2023-01-08T21:32:10.691Z,36.90
2023-01-08T21:34:56.818Z,36.97
2023-01-08T21:37:42.880Z,41.05
2023-01-08T21:40:29.186Z,39.50
2023-01-08T21:43:34.050Z,36.00
2023-01-08T21:46:21.810Z,36.78
2023-01-08T21:49:08.706Z,34.15
2023-01-08T21:52:14.218Z,38.08
2023-01-08T21:55:01.811Z,36.63
2023-01-08T21:57:48.511Z,36.88
2023-01-08T22:00:35.027Z,36.50
2023-01-08T22:03:21.701Z,38.03
2023-01-08T22:06:08.015Z,36.05
2023-01-08T22:08:56.877Z,34.90
2023-01-08T22:11:43.183Z,33.22
2023-01-08T22:14:29.510Z,31.63
2023-01-08T22:17:15.980Z,33.95
2023-01-08T22:20:02.981Z,34.25
2023-01-08T22:22:50.203Z,33.97
2023-01-08T22:25:40.647Z,37.38
2023-01-08T22:28:27.212Z,33.30
2023-01-08T22:31:14.579Z,36.95
2023-01-08T22:34:01.896Z,33.97
2023-01-08T22:36:51.198Z,34.92
2023-01-08T22:39:37.620Z,35.63
2023-01-08T22:42:25.072Z,36.03
2023-01-08T22:45:11.156Z,36.45
2023-01-08T22:47:58.298Z,33.78
2023-01-08T22:50:44.357Z,31.90
2023-01-08T22:53:31.564Z,35.60
2023-01-08T22:56:19.714Z,30.95
2023-01-08T22:59:06.297Z,31.60
2023-01-08T23:01:52.763Z,35.60
2023-01-08T23:04:39.071Z,35.75
2023-01-08T23:07:25.190Z,32.47
2023-01-08T23:10:11.682Z,34.72
2023-01-08T23:12:58.097Z,36.13
2023-01-08T23:15:44.272Z,35.15
2023-01-08T23:18:30.436Z,40.53
2023-01-08T23:21:18.223Z,34.72
2023-01-08T23:24:05.298Z,41.65
2023-01-08T23:26:51.578Z,38.85
2023-01-08T23:29:37.752Z,34.20
2023-01-08T23:32:26.012Z,36.15
2023-01-08T23:35:12.247Z,36.78
2023-01-08T23:37:58.417Z,36.60
2023-01-08T23:40:46.158Z,35.20
2023-01-08T23:43:32.423Z,35.67
2023-01-08T23:46:18.920Z,35.95
2023-01-08T23:49:08.005Z,32.33
2023-01-08T23:51:55.158Z,37.00
2023-01-08T23:54:41.556Z,32.67
2023-01-08T23:57:27.716Z,36.40
